sensor_id;sensor_type;location;lat;lon;timestamp;pressure;altitude;pressure_sealevel;temperature;humidity
29379;BME280;16362;47.202;15.258;2023-09-07T00:00:50;96906.41;;;12.80;100.00
29379;BME280;16362;47.202;15.258;2023-09-07T00:03:17;96909.91;;;12.80;100.00
29379;BME280;16362;47.202;15.258;2023-09-07T00:05:45;96917.13;;;12.80;100.00
29379;BME280;16362;47.202;15.258;2023-09-07T00:08:11;96905.06;;;12.76;100.00
29379;BME280;16362;47.202;15.258;2023-09-07T00:10:42;96901.38;;;12.77;100.00
29379;BME280;16362;47.202;15.258;2023-09-07T00:13:09;96903.56;;;12.73;100.00
29379;BME280;16362;47.202;15.258;2023-09-07T00:15:38;96900.91;;;12.73;100.00
29379;BME280;16362;47.202;15.258;2023-09-07T00:18:05;96901.56;;;12.67;100.00
29379;BME280;16362;47.202;15.258;2023-09-07T00:20:33;96904.06;;;12.69;100.00
29379;BME280;16362;47.202;15.258;2023-09-07T00:23:01;96908.97;;;12.65;100.00
29379;BME280;16362;47.202;15.258;2023-09-07T00:25:29;96905.44;;;12.64;100.00
29379;BME280;16362;47.202;15.258;2023-09-07T00:27:57;96901.25;;;12.62;100.00
29379;BME280;16362;47.202;15.258;2023-09-07T00:30:23;96898.75;;;12.60;100.00
29379;BME280;16362;47.202;15.258;2023-09-07T00:32:50;96903.75;;;12.63;100.00
29379;BME280;16362;47.202;15.258;2023-09-07T00:35:17;96896.75;;;12.62;100.00
29379;BME280;16362;47.202;15.258;2023-09-07T00:37:44;96900.59;;;12.60;100.00
29379;BME280;16362;47.202;15.258;2023-09-07T00:40:15;96898.75;;;12.60;100.00
29379;BME280;16362;47.202;15.258;2023-09-07T00:42:42;96897.25;;;12.58;100.00
29379;BME280;16362;47.202;15.258;2023-09-07T00:45:15;96891.88;;;12.58;100.00
29379;BME280;16362;47.202;15.258;2023-09-07T00:47:44;96886.06;;;12.54;100.00
29379;BME280;16362;47.202;15.258;2023-09-07T00:50:11;96886.06;;;12.54;100.00
29379;BME280;16362;47.202;15.258;2023-09-07T00:52:42;96892.41;;;12.53;100.00
29379;BME280;16362;47.202;15.258;2023-09-07T00:55:12;96885.38;;;12.52;100.00
29379;BME280;16362;47.202;15.258;2023-09-07T00:57:41;96889.75;;;12.53;100.00
29379;BME280;16362;47.202;15.258;2023-09-07T01:00:09;96883.72;;;12.51;100.00
29379;BME280;16362;47.202;15.258;2023-09-07T01:02:36;96888.25;;;12.51;100.00
29379;BME280;16362;47.202;15.258;2023-09-07T01:05:04;96885.91;;;12.48;100.00
29379;BME280;16362;47.202;15.258;2023-09-07T01:07:42;96885.91;;;12.48;100.00
29379;BME280;16362;47.202;15.258;2023-09-07T01:10:10;96880.69;;;12.46;100.00
29379;BME280;16362;47.202;15.258;2023-09-07T01:12:37;96875.34;;;12.46;100.00
29379;BME280;16362;47.202;15.258;2023-09-07T01:15:04;96870.69;;;12.40;100.00
29379;BME280;16362;47.202;15.258;2023-09-07T01:17:33;96880.56;;;12.39;100.00
29379;BME280;16362;47.202;15.258;2023-09-07T01:20:04;96871.69;;;12.39;100.00
29379;BME280;16362;47.202;15.258;2023-09-07T01:22:38;96873.88;;;12.35;100.00
29379;BME280;16362;47.202;15.258;2023-09-07T01:25:05;96873.56;;;12.30;100.00
29379;BME280;16362;47.202;15.258;2023-09-07T01:27:34;96878.06;;;12.29;100.00
29379;BME280;16362;47.202;15.258;2023-09-07T01:30:01;96886.09;;;12.29;100.00
29379;BME280;16362;47.202;15.258;2023-09-07T01:32:29;96883.59;;;12.28;100.00
29379;BME280;16362;47.202;15.258;2023-09-07T01:34:57;96881.75;;;12.28;100.00
29379;BME280;16362;47.202;15.258;2023-09-07T01:37:25;96873.06;;;12.26;100.00
29379;BME280;16362;47.202;15.258;2023-09-07T01:39:52;96867.03;;;12.24;100.00
29379;BME280;16362;47.202;15.258;2023-09-07T01:42:23;96864.53;;;12.23;100.00
29379;BME280;16362;47.202;15.258;2023-09-07T01:44:50;96868.88;;;12.24;100.00
29379;BME280;16362;47.202;15.258;2023-09-07T01:47:17;96869.72;;;12.24;100.00
29379;BME280;16362;47.202;15.258;2023-09-07T01:49:44;96864.53;;;12.23;100.00
29379;BME280;16362;47.202;15.258;2023-09-07T01:52:10;96868.88;;;12.24;100.00
29379;BME280;16362;47.202;15.258;2023-09-07T01:54:37;96858.53;;;12.21;100.00
29379;BME280;16362;47.202;15.258;2023-09-07T01:57:04;96859.84;;;12.25;100.00
29379;BME280;16362;47.202;15.258;2023-09-07T01:59:31;96859.34;;;12.21;100.00
29379;BME280;16362;47.202;15.258;2023-09-07T02:01:58;96865.06;;;12.18;100.00
29379;BME280;16362;47.202;15.258;2023-09-07T02:04:25;96860.19;;;12.13;100.00
29379;BME280;16362;47.202;15.258;2023-09-07T02:06:52;96868.09;;;12.15;100.00
29379;BME280;16362;47.202;15.258;2023-09-07T02:09:19;96864.72;;;12.13;100.00
29379;BME280;16362;47.202;15.258;2023-09-07T02:11:46;96859.72;;;12.10;100.00
29379;BME280;16362;47.202;15.258;2023-09-07T02:14:13;96869.41;;;12.11;100.00
29379;BME280;16362;47.202;15.258;2023-09-07T02:16:40;96864.06;;;12.11;100.00
29379;BME280;16362;47.202;15.258;2023-09-07T02:19:09;96870.25;;;12.11;100.00
29379;BME280;16362;47.202;15.258;2023-09-07T02:21:36;96866.06;;;12.09;100.00
29379;BME280;16362;47.202;15.258;2023-09-07T02:24:03;96864.38;;;12.08;100.00
29379;BME280;16362;47.202;15.258;2023-09-07T02:26:32;96861.25;;;12.04;100.00
29379;BME280;16362;47.202;15.258;2023-09-07T02:29:02;96864.38;;;12.08;100.00
29379;BME280;16362;47.202;15.258;2023-09-07T02:31:33;96869.75;;;12.08;100.00
29379;BME280;16362;47.202;15.258;2023-09-07T02:34:01;96866.72;;;12.03;100.00
29379;BME280;16362;47.202;15.258;2023-09-07T02:36:28;96867.25;;;11.98;100.00
29379;BME280;16362;47.202;15.258;2023-09-07T02:38:56;96869.25;;;11.96;100.00
29379;BME280;16362;47.202;15.258;2023-09-07T02:41:22;96868.56;;;11.94;100.00
29379;BME280;16362;47.202;15.258;2023-09-07T02:43:49;96860.53;;;11.94;100.00
29379;BME280;16362;47.202;15.258;2023-09-07T02:46:16;96865.06;;;11.93;100.00
29379;BME280;16362;47.202;15.258;2023-09-07T02:48:42;96862.38;;;11.93;100.00
29379;BME280;16362;47.202;15.258;2023-09-07T02:51:09;96861.88;;;11.90;100.00
29379;BME280;16362;47.202;15.258;2023-09-07T02:53:36;96861.19;;;11.88;100.00
29379;BME280;16362;47.202;15.258;2023-09-07T02:56:02;96857.69;;;11.87;100.00
29379;BME280;16362;47.202;15.258;2023-09-07T02:58:30;96856.19;;;11.85;100.00
29379;BME280;16362;47.202;15.258;2023-09-07T03:00:58;96863.22;;;11.86;100.00
29379;BME280;16362;47.202;15.258;2023-09-07T03:03:25;96859.03;;;11.83;100.00
29379;BME280;16362;47.202;15.258;2023-09-07T03:05:52;96854.69;;;11.82;100.00
29379;BME280;16362;47.202;15.258;2023-09-07T03:08:18;96864.91;;;11.87;100.00
29379;BME280;16362;47.202;15.258;2023-09-07T03:10:45;96864.22;;;11.85;100.00
29379;BME280;16362;47.202;15.258;2023-09-07T03:13:12;96858.34;;;11.81;100.00
29379;BME280;16362;47.202;15.258;2023-09-07T03:15:38;96863.69;;;11.81;100.00
29379;BME280;16362;47.202;15.258;2023-09-07T03:18:05;96859.38;;;11.80;100.00
29379;BME280;16362;47.202;15.258;2023-09-07T03:20:36;96865.03;;;11.77;100.00
29379;BME280;16362;47.202;15.258;2023-09-07T03:23:03;96866.06;;;11.76;100.00
29379;BME280;16362;47.202;15.258;2023-09-07T03:25:30;96858.88;;;11.76;100.00
29379;BME280;16362;47.202;15.258;2023-09-07T03:28:02;96862.72;;;11.74;100.00
29379;BME280;16362;47.202;15.258;2023-09-07T03:30:30;96863.06;;;11.71;100.00
29379;BME280;16362;47.202;15.258;2023-09-07T03:32:57;96865.91;;;11.69;100.00
29379;BME280;16362;47.202;15.258;2023-09-07T03:35:26;96855.53;;;11.66;100.00
29379;BME280;16362;47.202;15.258;2023-09-07T03:37:52;96850.69;;;11.61;100.00
29379;BME280;16362;47.202;15.258;2023-09-07T03:40:20;96859.34;;;11.63;100.00
29379;BME280;16362;47.202;15.258;2023-09-07T03:42:47;96860.38;;;11.62;100.00
29379;BME280;16362;47.202;15.258;2023-09-07T03:45:17;96858.03;;;11.59;100.00
29379;BME280;16362;47.202;15.258;2023-09-07T03:47:44;96861.03;;;11.56;100.00
29379;BME280;16362;47.202;15.258;2023-09-07T03:50:11;96868.88;;;11.58;100.00
29379;BME280;16362;47.202;15.258;2023-09-07T03:52:37;96863.88;;;11.55;100.00
29379;BME280;16362;47.202;15.258;2023-09-07T03:55:05;96868.41;;;11.54;100.00
29379;BME280;16362;47.202;15.258;2023-09-07T03:57:34;96865.72;;;11.54;100.00
29379;BME280;16362;47.202;15.258;2023-09-07T04:00:01;96862.03;;;11.47;100.00
29379;BME280;16362;47.202;15.258;2023-09-07T04:02:35;96870.91;;;11.48;100.00
29379;BME280;16362;47.202;15.258;2023-09-07T04:05:03;96870.03;;;11.47;100.00
29379;BME280;16362;47.202;15.258;2023-09-07T04:07:31;96876.41;;;11.46;100.00
29379;BME280;16362;47.202;15.258;2023-09-07T04:10:00;96871.88;;;11.46;100.00
29379;BME280;16362;47.202;15.258;2023-09-07T04:12:26;96860.69;;;11.43;100.00
29379;BME280;16362;47.202;15.258;2023-09-07T04:14:54;96880.72;;;11.47;100.00
29379;BME280;16362;47.202;15.258;2023-09-07T04:17:21;96876.72;;;11.43;100.00
29379;BME280;16362;47.202;15.258;2023-09-07T04:19:48;96884.09;;;11.41;100.00
29379;BME280;16362;47.202;15.258;2023-09-07T04:22:15;96885.06;;;11.40;100.00
29379;BME280;16362;47.202;15.258;2023-09-07T04:24:42;96888.75;;;11.39;100.00
29379;BME280;16362;47.202;15.258;2023-09-07T04:27:09;96882.75;;;11.37;100.00
29379;BME280;16362;47.202;15.258;2023-09-07T04:29:38;96886.41;;;11.36;100.00
29379;BME280;16362;47.202;15.258;2023-09-07T04:32:05;96884.38;;;11.38;100.00
29379;BME280;16362;47.202;15.258;2023-09-07T04:34:32;96890.06;;;11.35;100.00
29379;BME280;16362;47.202;15.258;2023-09-07T04:36:58;96893.44;;;11.37;100.00
29379;BME280;16362;47.202;15.258;2023-09-07T04:39:25;96892.91;;;11.33;100.00
29379;BME280;16362;47.202;15.258;2023-09-07T04:41:51;96885.72;;;11.34;100.00
29379;BME280;16362;47.202;15.258;2023-09-07T04:44:18;96889.91;;;11.36;100.00
29379;BME280;16362;47.202;15.258;2023-09-07T04:46:45;96895.25;;;11.36;100.00
29379;BME280;16362;47.202;15.258;2023-09-07T04:49:12;96895.75;;;11.40;100.00
29379;BME280;16362;47.202;15.258;2023-09-07T04:51:38;96892.09;;;11.41;100.00
29379;BME280;16362;47.202;15.258;2023-09-07T04:54:05;96899.09;;;11.42;100.00
29379;BME280;16362;47.202;15.258;2023-09-07T04:56:32;96885.72;;;11.42;100.00
29379;BME280;16362;47.202;15.258;2023-09-07T04:58:58;96895.44;;;11.51;100.00
29379;BME280;16362;47.202;15.258;2023-09-07T05:01:25;96904.13;;;11.53;100.00
29379;BME280;16362;47.202;15.258;2023-09-07T05:03:52;96897.81;;;11.54;100.00
29379;BME280;16362;47.202;15.258;2023-09-07T05:06:21;96896.78;;;11.55;100.00
29379;BME280;16362;47.202;15.258;2023-09-07T05:08:49;96900.31;;;11.56;100.00
29379;BME280;16362;47.202;15.258;2023-09-07T05:11:18;96903.63;;;11.58;100.00
29379;BME280;16362;47.202;15.258;2023-09-07T05:13:46;96898.13;;;11.59;100.00
29379;BME280;16362;47.202;15.258;2023-09-07T05:16:12;96896.78;;;11.63;100.00
29379;BME280;16362;47.202;15.258;2023-09-07T05:18:41;96892.81;;;11.68;100.00
29379;BME280;16362;47.202;15.258;2023-09-07T05:21:14;96894.47;;;11.69;100.00
29379;BME280;16362;47.202;15.258;2023-09-07T05:23:44;96902.00;;;11.73;100.00
29379;BME280;16362;47.202;15.258;2023-09-07T05:26:11;96901.13;;;11.73;100.00
29379;BME280;16362;47.202;15.258;2023-09-07T05:28:40;96906.00;;;11.77;100.00
29379;BME280;16362;47.202;15.258;2023-09-07T05:31:08;96910.19;;;11.80;100.00
29379;BME280;16362;47.202;15.258;2023-09-07T05:33:35;96898.81;;;11.78;100.00
29379;BME280;16362;47.202;15.258;2023-09-07T05:36:02;96903.69;;;11.83;100.00
29379;BME280;16362;47.202;15.258;2023-09-07T05:38:28;96907.81;;;11.85;100.00
29379;BME280;16362;47.202;15.258;2023-09-07T05:41:01;96913.19;;;11.85;100.00
29379;BME280;16362;47.202;15.258;2023-09-07T05:43:28;96911.53;;;12.09;100.00
29379;BME280;16362;47.202;15.258;2023-09-07T05:45:55;96912.47;;;12.57;100.00
29379;BME280;16362;47.202;15.258;2023-09-07T05:48:22;96916.84;;;13.06;100.00
29379;BME280;16362;47.202;15.258;2023-09-07T05:50:49;96909.69;;;13.38;100.00
29379;BME280;16362;47.202;15.258;2023-09-07T05:53:19;96910.66;;;13.69;100.00
29379;BME280;16362;47.202;15.258;2023-09-07T05:55:47;96901.25;;;14.11;100.00
29379;BME280;16362;47.202;15.258;2023-09-07T05:58:14;96909.66;;;14.46;100.00
29379;BME280;16362;47.202;15.258;2023-09-07T06:00:42;96905.28;;;14.83;100.00
29379;BME280;16362;47.202;15.258;2023-09-07T06:03:11;96913.59;;;15.03;100.00
29379;BME280;16362;47.202;15.258;2023-09-07T06:05:38;96909.75;;;15.27;100.00
29379;BME280;16362;47.202;15.258;2023-09-07T06:08:07;96913.34;;;15.49;100.00
29379;BME280;16362;47.202;15.258;2023-09-07T06:10:34;96910.94;;;15.76;100.00
29379;BME280;16362;47.202;15.258;2023-09-07T06:13:01;96911.41;;;16.02;100.00
29379;BME280;16362;47.202;15.258;2023-09-07T06:15:30;96907.66;;;16.24;100.00
29379;BME280;16362;47.202;15.258;2023-09-07T06:17:57;96906.75;;;16.39;100.00
29379;BME280;16362;47.202;15.258;2023-09-07T06:20:24;96921.25;;;16.16;100.00
29379;BME280;16362;47.202;15.258;2023-09-07T06:22:51;96912.41;;;16.22;100.00
29379;BME280;16362;47.202;15.258;2023-09-07T06:25:18;96915.78;;;16.31;100.00
29379;BME280;16362;47.202;15.258;2023-09-07T06:27:45;96917.53;;;16.67;100.00
29379;BME280;16362;47.202;15.258;2023-09-07T06:30:12;96917.44;;;16.89;100.00
29379;BME280;16362;47.202;15.258;2023-09-07T06:32:39;96922.38;;;17.13;100.00
29379;BME280;16362;47.202;15.258;2023-09-07T06:35:07;96922.66;;;17.32;100.00
29379;BME280;16362;47.202;15.258;2023-09-07T06:37:36;96919.81;;;17.47;100.00
29379;BME280;16362;47.202;15.258;2023-09-07T06:40:11;96913.81;;;17.51;100.00
29379;BME280;16362;47.202;15.258;2023-09-07T06:42:40;96916.75;;;17.63;100.00
29379;BME280;16362;47.202;15.258;2023-09-07T06:45:08;96922.41;;;17.82;100.00
29379;BME280;16362;47.202;15.258;2023-09-07T06:47:35;96920.59;;;17.96;100.00
29379;BME280;16362;47.202;15.258;2023-09-07T06:50:04;96925.56;;;17.99;100.00
29379;BME280;16362;47.202;15.258;2023-09-07T06:52:31;96932.25;;;18.23;100.00
29379;BME280;16362;47.202;15.258;2023-09-07T06:54:59;96918.31;;;18.46;100.00
29379;BME280;16362;47.202;15.258;2023-09-07T06:57:28;96918.31;;;18.26;100.00
29379;BME280;16362;47.202;15.258;2023-09-07T06:59:56;96919.56;;;18.30;100.00
29379;BME280;16362;47.202;15.258;2023-09-07T07:02:23;96928.72;;;18.36;100.00
29379;BME280;16362;47.202;15.258;2023-09-07T07:04:53;96918.09;;;18.34;100.00
29379;BME280;16362;47.202;15.258;2023-09-07T07:07:23;96932.66;;;18.60;100.00
29379;BME280;16362;47.202;15.258;2023-09-07T07:09:50;96932.44;;;18.89;100.00
29379;BME280;16362;47.202;15.258;2023-09-07T07:12:19;96931.59;;;18.95;100.00
29379;BME280;16362;47.202;15.258;2023-09-07T07:14:47;96928.41;;;19.18;100.00
29379;BME280;16362;47.202;15.258;2023-09-07T07:17:14;96928.00;;;19.08;100.00
29379;BME280;16362;47.202;15.258;2023-09-07T07:19:41;96932.13;;;19.24;100.00
29379;BME280;16362;47.202;15.258;2023-09-07T07:22:09;96929.44;;;19.17;100.00
29379;BME280;16362;47.202;15.258;2023-09-07T07:24:36;96934.47;;;19.13;100.00
29379;BME280;16362;47.202;15.258;2023-09-07T07:27:03;96934.03;;;19.16;100.00
29379;BME280;16362;47.202;15.258;2023-09-07T07:29:31;96927.38;;;19.19;100.00
29379;BME280;16362;47.202;15.258;2023-09-07T07:31:59;96933.00;;;19.24;100.00
29379;BME280;16362;47.202;15.258;2023-09-07T07:34:26;96931.25;;;19.43;100.00
29379;BME280;16362;47.202;15.258;2023-09-07T07:36:52;96929.47;;;19.69;100.00
29379;BME280;16362;47.202;15.258;2023-09-07T07:39:19;96927.97;;;19.73;100.00
29379;BME280;16362;47.202;15.258;2023-09-07T07:41:47;96931.81;;;19.97;100.00
29379;BME280;16362;47.202;15.258;2023-09-07T07:44:13;96925.44;;;19.85;100.00
29379;BME280;16362;47.202;15.258;2023-09-07T07:46:40;96932.44;;;19.99;100.00
29379;BME280;16362;47.202;15.258;2023-09-07T07:49:07;96934.00;;;20.14;100.00
29379;BME280;16362;47.202;15.258;2023-09-07T07:51:34;96927.31;;;20.42;100.00
29379;BME280;16362;47.202;15.258;2023-09-07T07:54:00;96922.75;;;20.67;100.00
29379;BME280;16362;47.202;15.258;2023-09-07T07:56:27;96921.97;;;20.60;100.00
29379;BME280;16362;47.202;15.258;2023-09-07T07:58:57;96915.50;;;20.61;100.00
29379;BME280;16362;47.202;15.258;2023-09-07T08:01:23;96920.47;;;20.90;100.00
29379;BME280;16362;47.202;15.258;2023-09-07T08:03:52;96921.84;;;20.99;100.00
29379;BME280;16362;47.202;15.258;2023-09-07T08:06:20;96921.22;;;21.15;100.00
29379;BME280;16362;47.202;15.258;2023-09-07T08:08:47;96918.28;;;21.17;100.00
29379;BME280;16362;47.202;15.258;2023-09-07T08:11:13;96914.69;;;21.23;100.00
29379;BME280;16362;47.202;15.258;2023-09-07T08:13:41;96911.50;;;21.26;100.00
29379;BME280;16362;47.202;15.258;2023-09-07T08:16:10;96916.94;;;21.26;100.00
29379;BME280;16362;47.202;15.258;2023-09-07T08:18:40;96917.09;;;21.31;100.00
29379;BME280;16362;47.202;15.258;2023-09-07T08:21:08;96911.75;;;21.25;100.00
29379;BME280;16362;47.202;15.258;2023-09-07T08:23:35;96911.59;;;21.19;100.00
29379;BME280;16362;47.202;15.258;2023-09-07T08:26:02;96911.75;;;21.25;100.00
29379;BME280;16362;47.202;15.258;2023-09-07T08:28:30;96917.69;;;21.15;100.00
29379;BME280;16362;47.202;15.258;2023-09-07T08:31:02;96916.56;;;21.41;100.00
29379;BME280;16362;47.202;15.258;2023-09-07T08:33:32;96910.56;;;21.69;100.00
29379;BME280;16362;47.202;15.258;2023-09-07T08:36:00;96910.69;;;22.05;99.74
29379;BME280;16362;47.202;15.258;2023-09-07T08:38:27;96915.69;;;22.20;94.09
29379;BME280;16362;47.202;15.258;2023-09-07T08:41:01;96913.81;;;22.20;90.36
29379;BME280;16362;47.202;15.258;2023-09-07T08:43:33;96918.38;;;22.39;90.96
29379;BME280;16362;47.202;15.258;2023-09-07T08:46:20;96921.97;;;22.32;89.47
29379;BME280;16362;47.202;15.258;2023-09-07T08:48:50;96926.19;;;22.47;86.82
29379;BME280;16362;47.202;15.258;2023-09-07T08:51:18;96907.97;;;22.71;87.32
29379;BME280;16362;47.202;15.258;2023-09-07T08:53:48;96905.72;;;22.80;84.72
29379;BME280;16362;47.202;15.258;2023-09-07T08:56:20;96916.03;;;22.90;83.03
29379;BME280;16362;47.202;15.258;2023-09-07T08:58:48;96913.66;;;23.05;85.98
29379;BME280;16362;47.202;15.258;2023-09-07T09:01:18;96912.69;;;23.11;82.86
29379;BME280;16362;47.202;15.258;2023-09-07T09:03:48;96912.34;;;23.08;81.04
29379;BME280;16362;47.202;15.258;2023-09-07T09:06:24;96903.03;;;23.15;80.58
29379;BME280;16362;47.202;15.258;2023-09-07T09:08:55;96908.53;;;23.32;82.69
29379;BME280;16362;47.202;15.258;2023-09-07T09:11:24;96904.97;;;23.44;78.25
29379;BME280;16362;47.202;15.258;2023-09-07T09:13:52;96903.78;;;23.80;76.06
29379;BME280;16362;47.202;15.258;2023-09-07T09:16:20;96902.09;;;23.79;76.77
29379;BME280;16362;47.202;15.258;2023-09-07T09:18:51;96902.25;;;24.01;77.65
29379;BME280;16362;47.202;15.258;2023-09-07T09:21:20;96896.34;;;24.04;70.37
29379;BME280;16362;47.202;15.258;2023-09-07T09:23:51;96902.84;;;24.03;68.75
29379;BME280;16362;47.202;15.258;2023-09-07T09:26:19;96895.44;;;24.16;67.65
29379;BME280;16362;47.202;15.258;2023-09-07T09:28:46;96898.41;;;24.31;68.05
29379;BME280;16362;47.202;15.258;2023-09-07T09:31:14;96901.91;;;24.44;67.44
29379;BME280;16362;47.202;15.258;2023-09-07T09:33:42;96893.63;;;24.38;66.89
29379;BME280;16362;47.202;15.258;2023-09-07T09:36:09;96893.06;;;24.53;68.03
29379;BME280;16362;47.202;15.258;2023-09-07T09:38:36;96898.59;;;24.42;65.39
29379;BME280;16362;47.202;15.258;2023-09-07T09:41:04;96885.44;;;24.38;60.81
29379;BME280;16362;47.202;15.258;2023-09-07T09:43:31;96890.00;;;24.50;61.89
29379;BME280;16362;47.202;15.258;2023-09-07T09:45:59;96886.03;;;24.75;60.91
29379;BME280;16362;47.202;15.258;2023-09-07T09:48:29;96886.34;;;24.95;63.10
29379;BME280;16362;47.202;15.258;2023-09-07T09:50:59;96885.72;;;24.71;59.77
29379;BME280;16362;47.202;15.258;2023-09-07T09:53:28;96896.41;;;24.95;55.07
29379;BME280;16362;47.202;15.258;2023-09-07T09:55:56;96890.69;;;24.96;55.91
29379;BME280;16362;47.202;15.258;2023-09-07T09:58:24;96883.28;;;24.75;59.14
29379;BME280;16362;47.202;15.258;2023-09-07T10:00:55;96890.88;;;24.89;57.21
29379;BME280;16362;47.202;15.258;2023-09-07T10:03:30;96876.41;;;24.89;58.02
29379;BME280;16362;47.202;15.258;2023-09-07T10:06:08;96887.78;;;25.03;56.31
29379;BME280;16362;47.202;15.258;2023-09-07T10:08:35;96890.66;;;24.74;54.41
29379;BME280;16362;47.202;15.258;2023-09-07T10:11:11;96892.13;;;24.31;52.72
29379;BME280;16362;47.202;15.258;2023-09-07T10:13:39;96890.00;;;24.50;54.74
29379;BME280;16362;47.202;15.258;2023-09-07T10:16:08;96882.38;;;24.86;52.66
29379;BME280;16362;47.202;15.258;2023-09-07T10:18:38;96882.03;;;24.99;54.66
29379;BME280;16362;47.202;15.258;2023-09-07T10:21:06;96890.31;;;24.87;53.85
29379;BME280;16362;47.202;15.258;2023-09-07T10:23:41;96879.59;;;24.64;51.27
29379;BME280;16362;47.202;15.258;2023-09-07T10:26:15;96883.81;;;24.71;53.75
29379;BME280;16362;47.202;15.258;2023-09-07T10:28:45;96885.84;;;24.81;52.79
29379;BME280;16362;47.202;15.258;2023-09-07T10:31:17;96888.41;;;24.88;54.04
29379;BME280;16362;47.202;15.258;2023-09-07T10:33:45;96879.34;;;25.04;52.60
29379;BME280;16362;47.202;15.258;2023-09-07T10:36:25;96868.63;;;25.20;54.35
29379;BME280;16362;47.202;15.258;2023-09-07T10:38:56;96868.03;;;25.18;56.25
29379;BME280;16362;47.202;15.258;2023-09-07T10:41:24;96863.63;;;25.12;57.67
29379;BME280;16362;47.202;15.258;2023-09-07T10:43:53;96868.50;;;25.10;55.39
29379;BME280;16362;47.202;15.258;2023-09-07T10:46:22;96866.72;;;25.20;57.79
29379;BME280;16362;47.202;15.258;2023-09-07T10:48:50;96864.06;;;25.26;58.49
29379;BME280;16362;47.202;15.258;2023-09-07T10:51:52;96860.38;;;25.15;57.69
29379;BME280;16362;47.202;15.258;2023-09-07T10:54:23;96861.41;;;25.09;58.80
29379;BME280;16362;47.202;15.258;2023-09-07T10:56:53;96869.53;;;25.03;59.84
29379;BME280;16362;47.202;15.258;2023-09-07T10:59:20;96866.81;;;24.86;58.53
29379;BME280;16362;47.202;15.258;2023-09-07T11:01:47;96862.91;;;24.99;59.26
29379;BME280;16362;47.202;15.258;2023-09-07T11:04:17;96862.88;;;24.77;54.80
29379;BME280;16362;47.202;15.258;2023-09-07T11:06:48;96859.56;;;24.58;53.17
29379;BME280;16362;47.202;15.258;2023-09-07T11:09:19;96862.63;;;24.45;54.87
29379;BME280;16362;47.202;15.258;2023-09-07T11:11:55;96864.78;;;24.26;53.42
29379;BME280;16362;47.202;15.258;2023-09-07T11:14:29;96856.19;;;24.51;55.33
29379;BME280;16362;47.202;15.258;2023-09-07T11:16:56;96852.47;;;24.40;56.15
29379;BME280;16362;47.202;15.258;2023-09-07T11:19:24;96860.34;;;24.19;56.72
29379;BME280;16362;47.202;15.258;2023-09-07T11:21:55;96853.03;;;24.08;55.11
29379;BME280;16362;47.202;15.258;2023-09-07T11:24:21;96854.94;;;24.25;58.46
29379;BME280;16362;47.202;15.258;2023-09-07T11:26:48;96852.38;;;24.18;55.22
29379;BME280;16362;47.202;15.258;2023-09-07T11:29:16;96845.59;;;24.20;55.37
29379;BME280;16362;47.202;15.258;2023-09-07T11:31:44;96833.63;;;24.38;60.02
29379;BME280;16362;47.202;15.258;2023-09-07T11:34:13;96829.72;;;24.51;61.85
29379;BME280;16362;47.202;15.258;2023-09-07T11:36:42;96832.16;;;24.31;62.63
29379;BME280;16362;47.202;15.258;2023-09-07T11:39:11;96835.94;;;24.30;57.58
29379;BME280;16362;47.202;15.258;2023-09-07T11:41:44;96837.44;;;24.03;53.79
29379;BME280;16362;47.202;15.258;2023-09-07T11:44:12;96835.69;;;23.68;58.21
29379;BME280;16362;47.202;15.258;2023-09-07T11:46:39;96824.69;;;23.63;54.44
29379;BME280;16362;47.202;15.258;2023-09-07T11:49:07;96827.53;;;23.68;57.74
29379;BME280;16362;47.202;15.258;2023-09-07T11:51:36;96831.06;;;23.69;60.37
29379;BME280;16362;47.202;15.258;2023-09-07T11:54:04;96818.59;;;23.56;55.85
29379;BME280;16362;47.202;15.258;2023-09-07T11:56:31;96828.78;;;23.49;57.08
29379;BME280;16362;47.202;15.258;2023-09-07T11:58:59;96828.84;;;23.37;57.99
29379;BME280;16362;47.202;15.258;2023-09-07T12:01:26;96825.69;;;23.28;58.77
29379;BME280;16362;47.202;15.258;2023-09-07T12:03:54;96828.22;;;23.18;61.39
29379;BME280;16362;47.202;15.258;2023-09-07T12:06:21;96819.69;;;23.14;59.59
29379;BME280;16362;47.202;15.258;2023-09-07T12:09:03;96821.59;;;23.14;56.21
29379;BME280;16362;47.202;15.258;2023-09-07T12:11:30;96816.22;;;23.19;54.86
29379;BME280;16362;47.202;15.258;2023-09-07T12:13:59;96824.19;;;23.20;60.93
29379;BME280;16362;47.202;15.258;2023-09-07T12:16:26;96821.09;;;23.05;63.44
29379;BME280;16362;47.202;15.258;2023-09-07T12:18:54;96822.22;;;22.92;59.88
29379;BME280;16362;47.202;15.258;2023-09-07T12:21:24;96821.63;;;22.90;59.20
29379;BME280;16362;47.202;15.258;2023-09-07T12:23:52;96818.66;;;22.92;62.45
29379;BME280;16362;47.202;15.258;2023-09-07T12:26:20;96809.81;;;22.73;63.85
29379;BME280;16362;47.202;15.258;2023-09-07T12:28:48;96806.28;;;22.60;63.36
29379;BME280;16362;47.202;15.258;2023-09-07T12:31:15;96811.84;;;22.65;58.72
29379;BME280;16362;47.202;15.258;2023-09-07T12:33:43;96801.66;;;22.61;62.02
29379;BME280;16362;47.202;15.258;2023-09-07T12:36:15;96800.38;;;22.51;60.09
29379;BME280;16362;47.202;15.258;2023-09-07T12:38:42;96799.91;;;22.54;60.30
29379;BME280;16362;47.202;15.258;2023-09-07T12:41:09;96799.06;;;22.54;64.23
29379;BME280;16362;47.202;15.258;2023-09-07T12:43:37;96788.31;;;22.47;60.20
29379;BME280;16362;47.202;15.258;2023-09-07T12:46:09;96784.06;;;22.51;64.70
29379;BME280;16362;47.202;15.258;2023-09-07T12:48:36;96792.69;;;22.36;66.55